Marietje Andrea — PBWR — position and weather

sailwx.info

Track history (hours):
 
Tides and Currents Weather Stations Pressure Air Temp Water Temp Dewpoint Dewpoint Depression Visibility Wind Speed Wind Dir Waves Ship Positions

Marietje Andrea

Last reported at 2017-Sep-17 00:55 UTC. Time now 2017-Sep-22 02:39 UTC.
Position N 58°42' W 004°14'.

Length 126 m; draft 6.8 m.

Type: Cargo ship. MMSI: 246649000.

Date/timePositionNaut miles runAvg speedWind from/ knotsBaromVisibWave heightAir tempDewpointWater temp
2017-Sep-17 00:55N 58°42' W 004°14'512.0
2017-Sep-17 00:30N 58°42' W 004°04'612.0
2017-Sep-17 00:00N 58°42' W 003°53'612.2
2017-Sep-16 23:30N 58°43' W 003°41'712.8
2017-Sep-16 22:57N 58°43' W 003°28'613.6
2017-Sep-16 22:29N 58°43' W 003°15'714.7
2017-Sep-16 22:00N 58°43' W 003°02'713.5
2017-Sep-16 21:30N 58°42' W 002°49'28110.4
2017-Sep-15 18:22N 57°51' E 005°57'410.3
2017-Sep-15 18:00N 57°51' E 006°04'510.7
2017-Sep-15 17:30N 57°50' E 006°14'910.8
2017-Sep-15 16:40N 57°49' E 006°31'211.0
2017-Sep-15 16:28N 57°48' E 006°35'611.3
2017-Sep-15 15:58N 57°47' E 006°45'511.9
2017-Sep-15 15:30N 57°47' E 006°56'612.4
2017-Sep-15 15:00N 57°47' E 007°07'612.8
2017-Sep-15 14:30N 57°46' E 007°19'612.8
2017-Sep-15 14:00N 57°46' E 007°31'612.1
2017-Sep-15 13:30N 57°46' E 007°43'611.8
2017-Sep-15 12:59N 57°46' E 007°54'611.8
2017-Sep-15 12:30N 57°46' E 008°05'6211.0
2017-Sep-15 06:53N 57°48' E 010°01'711.1
2017-Sep-15 06:15N 57°48' E 010°14'510.3
2017-Sep-15 05:46N 57°48' E 010°23'3 9.9
2017-Sep-15 05:29N 57°48' E 010°28'510.2
2017-Sep-15 04:59N 57°48' E 010°38'510.1
2017-Sep-15 04:30N 57°47' E 010°47'510.8
2017-Sep-15 04:00N 57°45' E 010°56'611.6
2017-Sep-15 03:30N 57°42' E 011°05'611.4
2017-Sep-15 03:00N 57°39' E 011°15'510.9
2017-Sep-15 02:30N 57°37' E 011°24'511.0
2017-Sep-15 02:00N 57°35' E 011°33'4 8.6
2017-Sep-15 01:30N 57°33' E 011°41'0 0.1
2017-Sep-15 00:56N 57°33' E 011°41'0 0.0
2017-Sep-15 00:29N 57°33' E 011°41'0 0.0
2017-Sep-14 23:56N 57°33' E 011°41'0 0.1
2017-Sep-14 23:05N 57°33' E 011°41'0 0.1
2017-Sep-14 22:59N 57°33' E 011°41'0 0.1
2017-Sep-14 22:29N 57°33' E 011°41'0 0.0
2017-Sep-14 21:50N 57°33' E 011°41'0 0.2
2017-Sep-14 21:29N 57°33' E 011°41'0 0.1
2017-Sep-14 20:56N 57°33' E 011°41'0 0.2
2017-Sep-14 20:29N 57°33' E 011°41'0 0.9
2017-Sep-14 20:01N 57°33' E 011°40'712.5
2017-Sep-14 19:29N 57°32' E 011°28'612.8
2017-Sep-14 19:00N 57°30' E 011°17'612.4
2017-Sep-14 18:30N 57°28' E 011°06'612.5
2017-Sep-14 18:00N 57°27' E 010°54'1012.6
2017-Sep-14 17:14N 57°25' E 010°37'1 4.4
2017-Sep-14 17:01N 57°25' E 010°35'0 0.4
2017-Sep-14 16:30N 57°25' E 010°35'0 0.4
2017-Sep-14 15:55N 57°25' E 010°35'0 0.7
2017-Sep-14 15:29N 57°25' E 010°35'0 0.9
2017-Sep-14 15:00N 57°25' E 010°36'28 6.0
2017-Sep-14 10:23N 56°58' E 010°23'410.3
2017-Sep-14 09:58N 56°59' E 010°15'511.5
2017-Sep-14 09:30N 57°02' E 010°07'510.6
2017-Sep-14 09:00N 57°05' E 009°59'1 1.7
2017-Sep-14 08:30N 57°04' E 009°58'0 0.0
2017-Sep-14 08:00N 57°04' E 009°58'0 0.0
2017-Sep-14 07:30N 57°04' E 009°58'0 0.0
2017-Sep-14 07:00N 57°04' E 009°58'0 0.0
2017-Sep-14 06:30N 57°04' E 009°58'0 0.0
2017-Sep-14 06:00N 57°04' E 009°58'0 0.0
2017-Sep-14 05:30N 57°04' E 009°58'0 0.0
2017-Sep-14 05:00N 57°04' E 009°58'0 0.0
2017-Sep-14 04:30N 57°04' E 009°58'0 0.0
2017-Sep-14 04:00N 57°04' E 009°58'0 0.0
2017-Sep-14 03:24N 57°04' E 009°58'0 0.0
2017-Sep-14 03:00N 57°04' E 009°58'0 0.0
2017-Sep-14 02:30N 57°04' E 009°58'0 0.0
2017-Sep-14 02:00N 57°04' E 009°58'0 0.0
2017-Sep-14 01:30N 57°04' E 009°58'0 0.0
2017-Sep-14 01:00N 57°04' E 009°58'0 0.0
2017-Sep-14 00:30N 57°04' E 009°58'0 0.0
2017-Sep-13 23:57N 57°04' E 009°58'0 0.0
2017-Sep-13 23:30N 57°04' E 009°58'0 0.0
2017-Sep-13 23:00N 57°04' E 009°58'0 0.0
2017-Sep-13 22:30N 57°04' E 009°58'0 0.0
2017-Sep-13 22:00N 57°04' E 009°58'0 0.0
2017-Sep-13 21:30N 57°04' E 009°58'0 0.0
2017-Sep-13 21:00N 57°04' E 009°58'0 0.0
2017-Sep-13 20:30N 57°04' E 009°58'0 0.0
2017-Sep-13 20:00N 57°04' E 009°58'0 0.0
2017-Sep-13 19:30N 57°04' E 009°58'0 0.0
2017-Sep-13 18:54N 57°04' E 009°58'0 0.0
2017-Sep-13 18:30N 57°04' E 009°58'0 0.0
2017-Sep-13 18:00N 57°04' E 009°58'0 0.0
2017-Sep-13 17:30N 57°04' E 009°58'0 0.0
2017-Sep-13 17:00N 57°04' E 009°58'0 0.0
2017-Sep-13 16:30N 57°04' E 009°58'0 0.0
2017-Sep-13 15:57N 57°04' E 009°58'0 0.0
2017-Sep-13 15:30N 57°04' E 009°58'0 0.0
2017-Sep-13 15:00N 57°04' E 009°58'0 0.0
2017-Sep-13 14:30N 57°04' E 009°58'0 0.0
2017-Sep-13 14:00N 57°04' E 009°58'0 0.0
2017-Sep-13 13:30N 57°04' E 009°58'0 0.0
2017-Sep-13 13:00N 57°04' E 009°58'0 0.0
2017-Sep-13 12:30N 57°04' E 009°58'0 0.0
2017-Sep-13 12:00N 57°04' E 009°58'0 0.0
2017-Sep-13 11:27N 57°04' E 009°58'0 0.0
2017-Sep-13 10:57N 57°04' E 009°58'0 0.0
2017-Sep-13 10:30N 57°04' E 009°58'0 0.0
2017-Sep-13 10:00N 57°04' E 009°58'0 0.0
2017-Sep-13 09:27N 57°04' E 009°58'0 0.0
2017-Sep-13 09:00N 57°04' E 009°58'0 0.0
2017-Sep-13 08:30N 57°04' E 009°58'0 0.0
2017-Sep-13 08:00N 57°04' E 009°58'0 0.0
2017-Sep-13 07:30N 57°04' E 009°58'0 0.0
2017-Sep-13 07:00N 57°04' E 009°58'0 0.0
2017-Sep-13 06:30N 57°04' E 009°58'0 0.0
2017-Sep-13 06:00N 57°04' E 009°58'0 0.0
2017-Sep-13 05:30N 57°04' E 009°58'0 0.0
2017-Sep-13 05:00N 57°04' E 009°58'0 0.0
2017-Sep-13 04:30N 57°04' E 009°58'0 0.0
2017-Sep-13 04:00N 57°04' E 009°58'0 0.0
2017-Sep-13 03:30N 57°04' E 009°58'0 0.0
2017-Sep-13 03:00N 57°04' E 009°58'0 0.0
2017-Sep-13 02:30N 57°04' E 009°58'0 0.0
2017-Sep-13 02:00N 57°04' E 009°58'0 0.0
2017-Sep-13 01:30N 57°04' E 009°58'0 0.0
2017-Sep-13 01:00N 57°04' E 009°58'0 0.0
2017-Sep-13 00:30N 57°04' E 009°58'0 0.0
2017-Sep-13 00:00N 57°04' E 009°58'0 0.0
2017-Sep-12 23:30N 57°04' E 009°58'0 0.0
2017-Sep-12 22:57N 57°04' E 009°58'0 0.0
2017-Sep-12 22:30N 57°04' E 009°58'0 0.0
2017-Sep-12 22:00N 57°04' E 009°58'0 0.0
2017-Sep-12 21:30N 57°04' E 009°58'0 0.0
2017-Sep-12 21:00N 57°04' E 009°58'0 0.0
2017-Sep-12 20:30N 57°04' E 009°58'0 0.0
2017-Sep-12 20:00N 57°04' E 009°58'0 0.0
2017-Sep-12 19:30N 57°04' E 009°58'0 0.0
2017-Sep-12 19:00N 57°04' E 009°58'0 0.0
2017-Sep-12 18:30N 57°04' E 009°58'0 0.0
2017-Sep-12 18:00N 57°04' E 009°58'0 0.0
2017-Sep-12 17:30N 57°04' E 009°58'0 0.0
2017-Sep-12 17:00N 57°04' E 009°58'0 0.0
2017-Sep-12 16:30N 57°04' E 009°58'0 0.0
2017-Sep-12 16:00N 57°04' E 009°58'0 0.0
2017-Sep-12 15:30N 57°04' E 009°58'0 0.0
2017-Sep-12 15:00N 57°04' E 009°58'0 0.0
2017-Sep-12 14:30N 57°04' E 009°58'0 0.0
2017-Sep-12 14:00N 57°04' E 009°58'0 0.0
2017-Sep-12 13:31N 57°04' E 009°58'1 1.2
2017-Sep-12 13:00N 57°04' E 009°59'3 6.8
2017-Sep-12 12:31N 57°03' E 010°04'4 8.4
2017-Sep-12 12:01N 57°00' E 010°10'7 9.9
2017-Sep-12 11:20N 56°58' E 010°22'  
2017-Sep-10 03:25N 56°16' E 012°11'4 9.3
2017-Sep-10 03:00N 56°14' E 012°17'5 9.2
2017-Sep-10 02:30N 56°11' E 012°24'5 9.1
2017-Sep-10 02:00N 56°08' E 012°30'5 9.1
2017-Sep-10 01:30N 56°05' E 012°36'510.0
2017-Sep-10 01:00N 56°01' E 012°41'510.4
2017-Sep-10 00:30N 55°56' E 012°43'510.1
2017-Sep-10 00:00N 55°51' E 012°44'510.5
2017-Sep-09 23:30N 55°46' E 012°42'5 9.2
2017-Sep-09 23:00N 55°41' E 012°41'4 7.6
2017-Sep-09 22:30N 55°37' E 012°42'4 7.2
2017-Sep-09 22:00N 55°34' E 012°42'4 8.9
2017-Sep-09 21:30N 55°29' E 012°42'5 9.5
2017-Sep-09 21:00N 55°25' E 012°42'5 9.5
2017-Sep-09 20:30N 55°20' E 012°41'4 8.9
2017-Sep-09 20:00N 55°17' E 012°47'5 9.3
2017-Sep-09 19:30N 55°16' E 012°55'5 9.1
2017-Sep-09 19:00N 55°15' E 013°03'5 8.9
2017-Sep-09 18:30N 55°15' E 013°11'12 8.1
2017-Sep-09 16:57N 55°15' E 013°33'3 7.6
2017-Sep-09 16:30N 55°15' E 013°39'4 7.6
2017-Sep-09 16:00N 55°15' E 013°46'4 8.2
2017-Sep-09 15:30N 55°15' E 013°53'4 8.2
2017-Sep-09 15:00N 55°15' E 014°00'4 8.2
2017-Sep-09 14:30N 55°14' E 014°07'4 8.2
2017-Sep-09 14:00N 55°14' E 014°14'4 7.6
2017-Sep-09 13:30N 55°17' E 014°19'4 8.2
2017-Sep-09 13:00N 55°20' E 014°24'4 8.4
2017-Sep-09 12:30N 55°23' E 014°29'4 7.9
2017-Sep-09 12:00N 55°26' E 014°33'4 7.6
2017-Sep-09 11:30N 55°28' E 014°39'4 7.5
2017-Sep-09 11:00N 55°30' E 014°44'4 7.5
2017-Sep-09 10:30N 55°32' E 014°50'4 7.6
2017-Sep-09 10:00N 55°34' E 014°56'4 7.7
2017-Sep-09 09:29N 55°36' E 015°02'4 7.7
2017-Sep-09 09:00N 55°38' E 015°08'4 8.8
2017-Sep-09 08:30N 55°40' E 015°14'4 7.4
2017-Sep-09 08:00N 55°42' E 015°20'4 7.3
2017-Sep-09 07:30N 55°44' E 015°26'4 7.4
2017-Sep-09 07:00N 55°45' E 015°31'4 7.4
2017-Sep-09 06:30N 55°47' E 015°37'4 7.7
2017-Sep-09 06:00N 55°49' E 015°43'4 7.7
2017-Sep-09 05:30N 55°51' E 015°49'4 7.8
2017-Sep-09 05:00N 55°53' E 015°55'4 7.8
2017-Sep-09 04:30N 55°55' E 016°01'4 7.6
2017-Sep-09 04:00N 55°57' E 016°07'4 7.4
2017-Sep-09 03:30N 55°59' E 016°13'4 7.0
2017-Sep-09 03:00N 56°00' E 016°18'4 7.1
2017-Sep-09 02:30N 56°02' E 016°23'4 7.2
2017-Sep-09 02:00N 56°04' E 016°29'3 6.8
2017-Sep-09 01:30N 56°06' E 016°34'3 6.6
2017-Sep-09 01:00N 56°07' E 016°40'4 6.6
2017-Sep-09 00:28N 56°09' E 016°45'4 6.8
2017-Sep-08 23:57N 56°11' E 016°50'3 6.6
2017-Sep-08 23:28N 56°13' E 016°54'  
Track history (hours):
 
Tides and Currents Weather Stations Pressure Air Temp Water Temp Dewpoint Dewpoint Depression Visibility Wind Speed Wind Dir Waves Ship Positions

Marietje Andrea

Last reported at 2017-Sep-17 00:55 UTC. Time now 2017-Sep-22 02:39 UTC.
Position N 58°42' W 004°14'.

Length 126 m; draft 6.8 m.

Type: Cargo ship. MMSI: 246649000.

Date/timePositionNaut miles runAvg speedWind from/ knotsBaromVisibWave heightAir tempDewpointWater temp
2017-Sep-17 00:55N 58°42' W 004°14'512.0
2017-Sep-17 00:30N 58°42' W 004°04'612.0
2017-Sep-17 00:00N 58°42' W 003°53'612.2
2017-Sep-16 23:30N 58°43' W 003°41'712.8
2017-Sep-16 22:57N 58°43' W 003°28'613.6
2017-Sep-16 22:29N 58°43' W 003°15'714.7
2017-Sep-16 22:00N 58°43' W 003°02'713.5
2017-Sep-16 21:30N 58°42' W 002°49'28110.4
2017-Sep-15 18:22N 57°51' E 005°57'410.3
2017-Sep-15 18:00N 57°51' E 006°04'510.7
2017-Sep-15 17:30N 57°50' E 006°14'910.8
2017-Sep-15 16:40N 57°49' E 006°31'211.0
2017-Sep-15 16:28N 57°48' E 006°35'611.3
2017-Sep-15 15:58N 57°47' E 006°45'511.9
2017-Sep-15 15:30N 57°47' E 006°56'612.4
2017-Sep-15 15:00N 57°47' E 007°07'612.8
2017-Sep-15 14:30N 57°46' E 007°19'612.8
2017-Sep-15 14:00N 57°46' E 007°31'612.1
2017-Sep-15 13:30N 57°46' E 007°43'611.8
2017-Sep-15 12:59N 57°46' E 007°54'611.8
2017-Sep-15 12:30N 57°46' E 008°05'6211.0
2017-Sep-15 06:53N 57°48' E 010°01'711.1
2017-Sep-15 06:15N 57°48' E 010°14'510.3
2017-Sep-15 05:46N 57°48' E 010°23'3 9.9
2017-Sep-15 05:29N 57°48' E 010°28'510.2
2017-Sep-15 04:59N 57°48' E 010°38'510.1
2017-Sep-15 04:30N 57°47' E 010°47'510.8
2017-Sep-15 04:00N 57°45' E 010°56'611.6
2017-Sep-15 03:30N 57°42' E 011°05'611.4
2017-Sep-15 03:00N 57°39' E 011°15'510.9
2017-Sep-15 02:30N 57°37' E 011°24'511.0
2017-Sep-15 02:00N 57°35' E 011°33'4 8.6
2017-Sep-15 01:30N 57°33' E 011°41'0 0.1
2017-Sep-15 00:56N 57°33' E 011°41'0 0.0
2017-Sep-15 00:29N 57°33' E 011°41'0 0.0
2017-Sep-14 23:56N 57°33' E 011°41'0 0.1
2017-Sep-14 23:05N 57°33' E 011°41'0 0.1
2017-Sep-14 22:59N 57°33' E 011°41'0 0.1
2017-Sep-14 22:29N 57°33' E 011°41'0 0.0
2017-Sep-14 21:50N 57°33' E 011°41'0 0.2
2017-Sep-14 21:29N 57°33' E 011°41'0 0.1
2017-Sep-14 20:56N 57°33' E 011°41'0 0.2
2017-Sep-14 20:29N 57°33' E 011°41'0 0.9
2017-Sep-14 20:01N 57°33' E 011°40'712.5
2017-Sep-14 19:29N 57°32' E 011°28'612.8
2017-Sep-14 19:00N 57°30' E 011°17'612.4
2017-Sep-14 18:30N 57°28' E 011°06'612.5
2017-Sep-14 18:00N 57°27' E 010°54'1012.6
2017-Sep-14 17:14N 57°25' E 010°37'1 4.4
2017-Sep-14 17:01N 57°25' E 010°35'0 0.4
2017-Sep-14 16:30N 57°25' E 010°35'0 0.4
2017-Sep-14 15:55N 57°25' E 010°35'0 0.7
2017-Sep-14 15:29N 57°25' E 010°35'0 0.9
2017-Sep-14 15:00N 57°25' E 010°36'28 6.0
2017-Sep-14 10:23N 56°58' E 010°23'410.3
2017-Sep-14 09:58N 56°59' E 010°15'511.5
2017-Sep-14 09:30N 57°02' E 010°07'510.6
2017-Sep-14 09:00N 57°05' E 009°59'1 1.7
2017-Sep-14 08:30N 57°04' E 009°58'0 0.0
2017-Sep-14 08:00N 57°04' E 009°58'0 0.0
2017-Sep-14 07:30N 57°04' E 009°58'0 0.0
2017-Sep-14 07:00N 57°04' E 009°58'0 0.0
2017-Sep-14 06:30N 57°04' E 009°58'0 0.0
2017-Sep-14 06:00N 57°04' E 009°58'0 0.0
2017-Sep-14 05:30N 57°04' E 009°58'0 0.0
2017-Sep-14 05:00N 57°04' E 009°58'0 0.0
2017-Sep-14 04:30N 57°04' E 009°58'0 0.0
2017-Sep-14 04:00N 57°04' E 009°58'0 0.0
2017-Sep-14 03:24N 57°04' E 009°58'0 0.0
2017-Sep-14 03:00N 57°04' E 009°58'0 0.0
2017-Sep-14 02:30N 57°04' E 009°58'0 0.0
2017-Sep-14 02:00N 57°04' E 009°58'0 0.0
2017-Sep-14 01:30N 57°04' E 009°58'0 0.0
2017-Sep-14 01:00N 57°04' E 009°58'0 0.0
2017-Sep-14 00:30N 57°04' E 009°58'0 0.0
2017-Sep-13 23:57N 57°04' E 009°58'0 0.0
2017-Sep-13 23:30N 57°04' E 009°58'0 0.0
2017-Sep-13 23:00N 57°04' E 009°58'0 0.0
2017-Sep-13 22:30N 57°04' E 009°58'0 0.0
2017-Sep-13 22:00N 57°04' E 009°58'0 0.0
2017-Sep-13 21:30N 57°04' E 009°58'0 0.0
2017-Sep-13 21:00N 57°04' E 009°58'0 0.0
2017-Sep-13 20:30N 57°04' E 009°58'0 0.0
2017-Sep-13 20:00N 57°04' E 009°58'0 0.0
2017-Sep-13 19:30N 57°04' E 009°58'0 0.0
2017-Sep-13 18:54N 57°04' E 009°58'0 0.0
2017-Sep-13 18:30N 57°04' E 009°58'0 0.0
2017-Sep-13 18:00N 57°04' E 009°58'0 0.0
2017-Sep-13 17:30N 57°04' E 009°58'0 0.0
2017-Sep-13 17:00N 57°04' E 009°58'0 0.0
2017-Sep-13 16:30N 57°04' E 009°58'0 0.0
2017-Sep-13 15:57N 57°04' E 009°58'0 0.0
2017-Sep-13 15:30N 57°04' E 009°58'0 0.0
2017-Sep-13 15:00N 57°04' E 009°58'0 0.0
2017-Sep-13 14:30N 57°04' E 009°58'0 0.0
2017-Sep-13 14:00N 57°04' E 009°58'0 0.0
2017-Sep-13 13:30N 57°04' E 009°58'0 0.0
2017-Sep-13 13:00N 57°04' E 009°58'0 0.0
2017-Sep-13 12:30N 57°04' E 009°58'0 0.0
2017-Sep-13 12:00N 57°04' E 009°58'0 0.0
2017-Sep-13 11:27N 57°04' E 009°58'0 0.0
2017-Sep-13 10:57N 57°04' E 009°58'0 0.0
2017-Sep-13 10:30N 57°04' E 009°58'0 0.0
2017-Sep-13 10:00N 57°04' E 009°58'0 0.0
2017-Sep-13 09:27N 57°04' E 009°58'0 0.0
2017-Sep-13 09:00N 57°04' E 009°58'0 0.0
2017-Sep-13 08:30N 57°04' E 009°58'0 0.0
2017-Sep-13 08:00N 57°04' E 009°58'0 0.0
2017-Sep-13 07:30N 57°04' E 009°58'0 0.0
2017-Sep-13 07:00N 57°04' E 009°58'0 0.0
2017-Sep-13 06:30N 57°04' E 009°58'0 0.0
2017-Sep-13 06:00N 57°04' E 009°58'0 0.0
2017-Sep-13 05:30N 57°04' E 009°58'0 0.0
2017-Sep-13 05:00N 57°04' E 009°58'0 0.0
2017-Sep-13 04:30N 57°04' E 009°58'0 0.0
2017-Sep-13 04:00N 57°04' E 009°58'0 0.0
2017-Sep-13 03:30N 57°04' E 009°58'0 0.0
2017-Sep-13 03:00N 57°04' E 009°58'0 0.0
2017-Sep-13 02:30N 57°04' E 009°58'0 0.0
2017-Sep-13 02:00N 57°04' E 009°58'0 0.0
2017-Sep-13 01:30N 57°04' E 009°58'0 0.0
2017-Sep-13 01:00N 57°04' E 009°58'0 0.0
2017-Sep-13 00:30N 57°04' E 009°58'0 0.0
2017-Sep-13 00:00N 57°04' E 009°58'0 0.0
2017-Sep-12 23:30N 57°04' E 009°58'0 0.0
2017-Sep-12 22:57N 57°04' E 009°58'0 0.0
2017-Sep-12 22:30N 57°04' E 009°58'0 0.0
2017-Sep-12 22:00N 57°04' E 009°58'0 0.0
2017-Sep-12 21:30N 57°04' E 009°58'0 0.0
2017-Sep-12 21:00N 57°04' E 009°58'0 0.0
2017-Sep-12 20:30N 57°04' E 009°58'0 0.0
2017-Sep-12 20:00N 57°04' E 009°58'0 0.0
2017-Sep-12 19:30N 57°04' E 009°58'0 0.0
2017-Sep-12 19:00N 57°04' E 009°58'0 0.0
2017-Sep-12 18:30N 57°04' E 009°58'0 0.0
2017-Sep-12 18:00N 57°04' E 009°58'0 0.0
2017-Sep-12 17:30N 57°04' E 009°58'0 0.0
2017-Sep-12 17:00N 57°04' E 009°58'0 0.0
2017-Sep-12 16:30N 57°04' E 009°58'0 0.0
2017-Sep-12 16:00N 57°04' E 009°58'0 0.0
2017-Sep-12 15:30N 57°04' E 009°58'0 0.0
2017-Sep-12 15:00N 57°04' E 009°58'0 0.0
2017-Sep-12 14:30N 57°04' E 009°58'0 0.0
2017-Sep-12 14:00N 57°04' E 009°58'0 0.0
2017-Sep-12 13:31N 57°04' E 009°58'1 1.2
2017-Sep-12 13:00N 57°04' E 009°59'3 6.8
2017-Sep-12 12:31N 57°03' E 010°04'4 8.4
2017-Sep-12 12:01N 57°00' E 010°10'7 9.9
2017-Sep-12 11:20N 56°58' E 010°22'  
2017-Sep-10 03:25N 56°16' E 012°11'4 9.3
2017-Sep-10 03:00N 56°14' E 012°17'5 9.2
2017-Sep-10 02:30N 56°11' E 012°24'5 9.1
2017-Sep-10 02:00N 56°08' E 012°30'5 9.1
2017-Sep-10 01:30N 56°05' E 012°36'510.0
2017-Sep-10 01:00N 56°01' E 012°41'510.4
2017-Sep-10 00:30N 55°56' E 012°43'510.1
2017-Sep-10 00:00N 55°51' E 012°44'510.5
2017-Sep-09 23:30N 55°46' E 012°42'5 9.2
2017-Sep-09 23:00N 55°41' E 012°41'4 7.6
2017-Sep-09 22:30N 55°37' E 012°42'4 7.2
2017-Sep-09 22:00N 55°34' E 012°42'4 8.9
2017-Sep-09 21:30N 55°29' E 012°42'5 9.5
2017-Sep-09 21:00N 55°25' E 012°42'5 9.5
2017-Sep-09 20:30N 55°20' E 012°41'4 8.9
2017-Sep-09 20:00N 55°17' E 012°47'5 9.3
2017-Sep-09 19:30N 55°16' E 012°55'5 9.1
2017-Sep-09 19:00N 55°15' E 013°03'5 8.9
2017-Sep-09 18:30N 55°15' E 013°11'12 8.1
2017-Sep-09 16:57N 55°15' E 013°33'3 7.6
2017-Sep-09 16:30N 55°15' E 013°39'4 7.6
2017-Sep-09 16:00N 55°15' E 013°46'4 8.2
2017-Sep-09 15:30N 55°15' E 013°53'4 8.2
2017-Sep-09 15:00N 55°15' E 014°00'4 8.2
2017-Sep-09 14:30N 55°14' E 014°07'4 8.2
2017-Sep-09 14:00N 55°14' E 014°14'4 7.6
2017-Sep-09 13:30N 55°17' E 014°19'4 8.2
2017-Sep-09 13:00N 55°20' E 014°24'4 8.4
2017-Sep-09 12:30N 55°23' E 014°29'4 7.9
2017-Sep-09 12:00N 55°26' E 014°33'4 7.6
2017-Sep-09 11:30N 55°28' E 014°39'4 7.5
2017-Sep-09 11:00N 55°30' E 014°44'4 7.5
2017-Sep-09 10:30N 55°32' E 014°50'4 7.6
2017-Sep-09 10:00N 55°34' E 014°56'4 7.7
2017-Sep-09 09:29N 55°36' E 015°02'4 7.7
2017-Sep-09 09:00N 55°38' E 015°08'4 8.8
2017-Sep-09 08:30N 55°40' E 015°14'4 7.4
2017-Sep-09 08:00N 55°42' E 015°20'4 7.3
2017-Sep-09 07:30N 55°44' E 015°26'4 7.4
2017-Sep-09 07:00N 55°45' E 015°31'4 7.4
2017-Sep-09 06:30N 55°47' E 015°37'4 7.7
2017-Sep-09 06:00N 55°49' E 015°43'4 7.7
2017-Sep-09 05:30N 55°51' E 015°49'4 7.8
2017-Sep-09 05:00N 55°53' E 015°55'4 7.8
2017-Sep-09 04:30N 55°55' E 016°01'4 7.6
2017-Sep-09 04:00N 55°57' E 016°07'4 7.4
2017-Sep-09 03:30N 55°59' E 016°13'4 7.0
2017-Sep-09 03:00N 56°00' E 016°18'4 7.1
2017-Sep-09 02:30N 56°02' E 016°23'4 7.2
2017-Sep-09 02:00N 56°04' E 016°29'3 6.8
2017-Sep-09 01:30N 56°06' E 016°34'3 6.6
2017-Sep-09 01:00N 56°07' E 016°40'4 6.6
2017-Sep-09 00:28N 56°09' E 016°45'4 6.8
2017-Sep-08 23:57N 56°11' E 016°50'3 6.6
2017-Sep-08 23:28N 56°13' E 016°54'  

Dump ship's entire track history